createdAt,value
2018-05-01T00:01:40.053Z,99276
2018-05-01T00:04:06.129Z,99280
2018-05-01T00:06:32.209Z,99279
2018-05-01T00:08:58.289Z,99279
2018-05-01T00:11:24.368Z,99283
2018-05-01T00:13:51.229Z,99292
2018-05-01T00:16:17.308Z,99292
2018-05-01T00:18:43.387Z,99289
2018-05-01T00:21:09.468Z,99285
2018-05-01T00:23:35.545Z,99288
2018-05-01T00:26:01.637Z,99266
2018-05-01T00:28:28.448Z,99277
2018-05-01T00:30:54.528Z,99282
2018-05-01T00:33:20.609Z,99280
2018-05-01T00:35:46.693Z,99277
2018-05-01T00:38:12.772Z,99286
2018-05-01T00:40:38.848Z,99276
2018-05-01T00:43:04.920Z,99286
2018-05-01T00:45:31.008Z,99292
2018-05-01T00:47:57.076Z,99292
2018-05-01T00:50:23.159Z,99304
2018-05-01T00:52:49.231Z,99288
2018-05-01T00:55:16.087Z,99273
2018-05-01T00:57:42.908Z,99279
2018-05-01T01:00:08.980Z,99272
2018-05-01T01:02:35.049Z,99271
2018-05-01T01:05:01.136Z,99278
2018-05-01T01:07:27.199Z,99274
2018-05-01T01:09:53.279Z,99270
2018-05-01T01:12:19.360Z,99278
2018-05-01T01:14:45.439Z,99280
2018-05-01T01:17:11.515Z,99287
2018-05-01T01:19:37.572Z,99287
2018-05-01T01:22:03.645Z,99288
2018-05-01T01:24:30.470Z,99316
2018-05-01T01:26:56.577Z,99346
2018-05-01T01:29:22.659Z,99340
2018-05-01T01:31:49.476Z,99328
2018-05-01T01:34:15.552Z,99325
2018-05-01T01:36:41.487Z,99335
2018-05-01T01:39:07.408Z,99319
2018-05-01T01:41:33.332Z,99333
2018-05-01T01:43:59.269Z,99319
2018-05-01T01:46:25.189Z,99321
2018-05-01T01:48:51.111Z,99309
2018-05-01T01:51:17.027Z,99315
2018-05-01T01:53:42.952Z,99317
2018-05-01T01:56:08.884Z,99329
2018-05-01T01:58:34.820Z,99336
2018-05-01T02:01:00.744Z,99348
2018-05-01T02:03:26.676Z,99341
2018-05-01T02:05:52.600Z,99338
2018-05-01T02:08:19.292Z,99332
2018-05-01T02:10:45.211Z,99326
2018-05-01T02:13:11.141Z,99336
2018-05-01T02:15:37.096Z,99328
2018-05-01T02:18:03.028Z,99331
2018-05-01T02:20:30.444Z,99322
2018-05-01T02:22:56.371Z,99307
2018-05-01T02:25:22.303Z,99285
2018-05-01T02:27:48.232Z,99284
2018-05-01T02:30:14.160Z,99275
2018-05-01T02:32:40.080Z,99277
2018-05-01T02:35:06.004Z,99288
2018-05-01T02:37:31.924Z,99300
2018-05-01T02:39:57.854Z,99309
2018-05-01T02:42:23.811Z,99324
2018-05-01T02:47:54.801Z,99341
2018-05-01T02:50:20.728Z,99341
2018-05-01T02:52:46.651Z,99341
2018-05-01T02:55:12.597Z,99350
2018-05-01T02:57:38.544Z,99343
2018-05-01T03:00:05.245Z,99340
2018-05-01T03:02:31.172Z,99342
2018-05-01T03:04:57.101Z,99339
2018-05-01T03:07:23.032Z,99336
2018-05-01T03:09:49.026Z,99333
2018-05-01T03:12:15.658Z,99334
2018-05-01T03:14:41.583Z,99331
2018-05-01T03:17:07.508Z,99337
2018-05-01T03:19:33.432Z,99340
2018-05-01T03:21:59.364Z,99336
2018-05-01T03:24:25.291Z,99346
2018-05-01T03:26:51.215Z,99356
2018-05-01T03:29:18.625Z,99346
2018-05-01T03:31:44.552Z,99342
2018-05-01T03:34:10.476Z,99341
2018-05-01T03:36:36.407Z,99346
2018-05-01T03:39:02.423Z,99340
2018-05-01T03:41:28.272Z,99344
2018-05-01T03:43:54.191Z,99350
2018-05-01T03:46:20.124Z,99345
2018-05-01T03:48:46.043Z,99351
2018-05-01T03:51:11.965Z,99357
2018-05-01T03:53:37.900Z,99362
2018-05-01T03:56:03.880Z,99354
2018-05-01T03:58:29.786Z,99356
2018-05-01T04:00:55.724Z,99357
2018-05-01T04:03:21.652Z,99365
2018-05-01T04:05:47.568Z,99358
2018-05-01T04:08:13.500Z,99358
2018-05-01T04:10:40.204Z,99347
2018-05-01T04:13:06.134Z,99365
2018-05-01T04:15:32.057Z,99375
2018-05-01T04:17:57.988Z,99374
2018-05-01T04:20:23.910Z,99374
2018-05-01T04:22:49.835Z,99384
2018-05-01T04:25:15.766Z,99385
2018-05-01T04:27:41.700Z,99389
2018-05-01T04:30:07.632Z,99392
2018-05-01T04:32:33.581Z,99392
2018-05-01T04:35:00.247Z,99398
2018-05-01T04:37:26.175Z,99395
2018-05-01T04:39:52.104Z,99400
2018-05-01T04:42:18.024Z,99392
2018-05-01T04:44:43.951Z,99394
2018-05-01T04:47:09.876Z,99391
2018-05-01T04:49:35.812Z,99396
2018-05-01T04:52:01.749Z,99398
2018-05-01T04:54:27.680Z,99393
2018-05-01T04:56:53.620Z,99395
2018-05-01T04:59:19.560Z,99394
2018-05-01T05:01:45.479Z,99392
2018-05-01T05:04:11.404Z,99392
2018-05-01T05:06:37.325Z,99393
2018-05-01T05:09:03.256Z,99393
2018-05-01T05:11:29.189Z,99390
2018-05-01T05:13:55.107Z,99401
2018-05-01T05:16:21.041Z,99389
2018-05-01T05:18:46.976Z,99400
2018-05-01T05:21:12.909Z,99389
2018-05-01T05:23:38.831Z,99397
2018-05-01T05:26:04.767Z,99410
2018-05-01T05:28:31.443Z,99420
2018-05-01T05:30:57.384Z,99416
2018-05-01T05:33:23.316Z,99421
2018-05-01T05:35:49.265Z,99423
2018-05-01T05:38:15.195Z,99431
2018-05-01T05:40:41.869Z,99423
2018-05-01T05:43:07.795Z,99429
2018-05-01T05:45:33.728Z,99442
2018-05-01T05:47:59.652Z,99436
2018-05-01T05:50:25.595Z,99451
2018-05-01T05:52:51.526Z,99449
2018-05-01T05:55:17.451Z,99452
2018-05-01T05:57:43.379Z,99455
2018-05-01T06:00:09.309Z,99457
2018-05-01T06:02:35.985Z,99458
2018-05-01T06:05:01.908Z,99458
2018-05-01T06:07:27.845Z,99462
2018-05-01T06:09:53.775Z,99460
2018-05-01T06:12:19.708Z,99477
2018-05-01T06:14:45.628Z,99484
2018-05-01T06:17:11.556Z,99493
2018-05-01T06:19:37.482Z,99489
2018-05-01T06:22:03.452Z,99493
2018-05-01T06:24:30.080Z,99495
2018-05-01T06:26:56.004Z,99492
2018-05-01T06:29:21.923Z,99498
2018-05-01T06:31:47.848Z,99496
2018-05-01T06:34:13.776Z,99489
2018-05-01T06:36:39.691Z,99492
2018-05-01T06:39:05.620Z,99486
2018-05-01T06:41:31.544Z,99486
2018-05-01T06:43:57.491Z,99481
2018-05-01T06:46:23.412Z,99481
2018-05-01T06:48:49.339Z,99483
2018-05-01T06:51:15.263Z,99491
2018-05-01T06:53:41.192Z,99491
2018-05-01T06:56:07.125Z,99495
2018-05-01T06:58:33.060Z,99504
2018-05-01T07:00:59.729Z,99508
2018-05-01T07:03:25.657Z,99504
2018-05-01T07:05:51.593Z,99523
2018-05-01T07:08:17.538Z,99524
2018-05-01T07:10:43.456Z,99511
2018-05-01T07:13:09.388Z,99515
2018-05-01T07:15:35.320Z,99508
2018-05-01T07:18:01.241Z,99511
2018-05-01T07:20:27.168Z,99525
2018-05-01T07:22:53.091Z,99522
2018-05-01T07:25:19.028Z,99536
2018-05-01T07:27:45.684Z,99543
2018-05-01T07:30:11.620Z,99536
2018-05-01T07:32:37.541Z,99540
2018-05-01T07:35:03.464Z,99541
2018-05-01T07:37:29.388Z,99530
2018-05-01T07:39:55.308Z,99535
2018-05-01T07:42:21.284Z,99533
2018-05-01T07:44:47.177Z,99535
2018-05-01T07:47:13.096Z,99537
2018-05-01T07:49:39.032Z,99531
2018-05-01T07:52:04.959Z,99539
2018-05-01T07:54:30.892Z,99540
2018-05-01T07:56:57.580Z,99547
2018-05-01T07:59:23.507Z,99548
2018-05-01T08:01:49.440Z,99553
2018-05-01T08:04:15.368Z,99563
2018-05-01T08:06:41.318Z,99562
2018-05-01T08:09:07.988Z,99568
2018-05-01T08:11:33.916Z,99568
2018-05-01T08:13:59.838Z,99572
2018-05-01T08:16:25.780Z,99581
2018-05-01T08:18:51.706Z,99574
2018-05-01T08:21:17.640Z,99581
2018-05-01T08:23:43.568Z,99575
2018-05-01T08:26:09.497Z,99584
2018-05-01T08:28:35.424Z,99589
2018-05-01T08:31:01.356Z,99592
2018-05-01T08:33:28.024Z,99599
2018-05-01T08:35:53.956Z,99593
2018-05-01T08:38:19.897Z,99594
2018-05-01T08:40:45.829Z,99587
2018-05-01T08:43:11.791Z,99597
2018-05-01T08:46:10.008Z,99611
2018-05-01T08:48:35.945Z,99602
2018-05-01T08:51:01.876Z,99610
2018-05-01T08:53:27.805Z,99609
2018-05-01T08:55:53.732Z,99618
2018-05-01T08:58:19.677Z,99604
2018-05-01T09:00:46.348Z,99608
2018-05-01T09:03:12.285Z,99610
2018-05-01T09:05:38.309Z,99609
2018-05-01T09:08:04.248Z,99615
2018-05-01T09:10:30.176Z,99622
2018-05-01T09:12:56.109Z,99624
2018-05-01T09:15:22.051Z,99619
2018-05-01T09:17:48.843Z,99612
2018-05-01T09:20:14.671Z,99622
2018-05-01T09:22:40.616Z,99623
2018-05-01T09:25:06.537Z,99618
2018-05-01T09:27:32.476Z,99620
2018-05-01T09:30:00.192Z,99624
2018-05-01T09:32:26.115Z,99620
2018-05-01T09:34:52.047Z,99631
2018-05-01T09:37:17.977Z,99619
2018-05-01T09:39:43.908Z,99623
2018-05-01T09:42:09.827Z,99624
2018-05-01T09:44:35.760Z,99627
2018-05-01T09:47:02.434Z,99639
2018-05-01T09:49:28.368Z,99643
2018-05-01T09:51:54.296Z,99642
2018-05-01T09:54:20.384Z,99636
2018-05-01T09:56:46.477Z,99647
2018-05-01T09:59:12.566Z,99651
2018-05-01T10:01:47.785Z,99649
2018-05-01T10:04:13.803Z,99652
2018-05-01T10:06:39.879Z,99661
2018-05-01T10:09:05.967Z,99657
2018-05-01T10:11:32.052Z,99655
2018-05-01T10:13:58.127Z,99647
2018-05-01T10:16:24.216Z,99655
2018-05-01T10:18:51.041Z,99653
2018-05-01T10:21:17.131Z,99659
2018-05-01T10:23:43.204Z,99649
2018-05-01T10:26:10.061Z,99640
2018-05-01T10:28:36.967Z,99616
2018-05-01T10:31:03.000Z,99615
2018-05-01T10:33:29.821Z,99632
2018-05-01T10:35:55.899Z,99624
2018-05-01T10:38:22.801Z,99615
2018-05-01T10:40:49.556Z,99629
2018-05-01T10:43:15.636Z,99619
2018-05-01T10:45:41.749Z,99619
2018-05-01T10:48:07.785Z,99632
2018-05-01T10:50:33.849Z,99629
2018-05-01T10:52:59.908Z,99624
2018-05-01T10:55:26.708Z,99627
2018-05-01T10:57:52.788Z,99639
2018-05-01T11:00:18.855Z,99638
2018-05-01T11:02:44.934Z,99656
2018-05-01T11:05:10.992Z,99674
2018-05-01T11:07:37.072Z,99671
2018-05-01T11:10:03.880Z,99675
2018-05-01T11:12:29.963Z,99677
2018-05-01T11:14:56.028Z,99667
2018-05-01T11:17:22.115Z,99664
2018-05-01T11:19:48.196Z,99667
2018-05-01T11:22:14.268Z,99678
2018-05-01T11:24:40.411Z,99688
2018-05-01T11:27:06.440Z,99694
2018-05-01T11:29:32.507Z,99681
2018-05-01T11:31:59.311Z,99678
2018-05-01T11:34:25.380Z,99685
2018-05-01T11:36:51.436Z,99679
2018-05-01T11:39:17.522Z,99672
2018-05-01T11:41:44.345Z,99668
2018-05-01T11:44:10.418Z,99677
2018-05-01T11:46:36.483Z,99681
2018-05-01T11:49:02.568Z,99681
2018-05-01T11:51:28.627Z,99684
2018-05-01T11:53:54.691Z,99687
2018-05-01T11:56:48.828Z,99692
2018-05-01T11:59:18.991Z,99681
2018-05-01T12:01:45.068Z,99695
2018-05-01T12:04:11.148Z,99695
2018-05-01T12:06:37.973Z,99690
2018-05-01T12:09:04.055Z,99696
2018-05-01T12:11:30.143Z,99710
2018-05-01T12:13:56.960Z,99707
2018-05-01T12:16:23.040Z,99706
2018-05-01T12:18:49.123Z,99707
2018-05-01T12:21:16.689Z,99698
2018-05-01T12:23:43.597Z,99704
2018-05-01T12:26:09.608Z,99704
2018-05-01T12:28:35.683Z,99697
2018-05-01T12:31:02.499Z,99698
2018-05-01T12:33:28.576Z,99686
2018-05-01T12:35:54.652Z,99679
2018-05-01T12:38:20.736Z,99663
2018-05-01T12:40:46.833Z,99661
2018-05-01T12:43:13.668Z,99668
2018-05-01T12:45:39.735Z,99672
2018-05-01T12:48:05.818Z,99672
2018-05-01T12:50:31.884Z,99667
2018-05-01T12:52:57.975Z,99671
2018-05-01T12:55:24.796Z,99661
2018-05-01T12:57:50.904Z,99662
2018-05-01T13:00:16.984Z,99662
2018-05-01T13:02:43.076Z,99666
2018-05-01T13:05:09.167Z,99669
2018-05-01T13:07:35.256Z,99672
2018-05-01T13:10:02.076Z,99667
2018-05-01T13:12:28.969Z,99664
2018-05-01T13:14:55.756Z,99676
2018-05-01T13:17:21.828Z,99683
2018-05-01T13:19:47.907Z,99691
2018-05-01T13:22:14.744Z,99689
2018-05-01T13:24:40.837Z,99679
2018-05-01T13:27:06.912Z,99673
2018-05-01T13:29:33.731Z,99673
2018-05-01T13:32:21.194Z,99664
2018-05-01T13:34:48.020Z,99666
2018-05-01T13:37:14.092Z,99656
2018-05-01T13:39:40.181Z,99659
2018-05-01T13:42:06.996Z,99670
2018-05-01T13:44:33.088Z,99672
2018-05-01T13:46:59.172Z,99670
2018-05-01T13:49:26.008Z,99675
2018-05-01T13:51:52.848Z,99658
2018-05-01T13:54:18.932Z,99666
2018-05-01T13:56:45.008Z,99674
2018-05-01T13:59:11.864Z,99676
2018-05-01T14:01:38.690Z,99683
2018-05-01T14:04:04.756Z,99691
2018-05-01T14:06:45.881Z,99692
2018-05-01T14:09:11.963Z,99691
2018-05-01T14:11:38.087Z,99680
2018-05-01T14:14:04.150Z,99687
2018-05-01T14:16:30.232Z,99693
2018-05-01T14:18:56.319Z,99694
2018-05-01T14:21:22.400Z,99689
2018-05-01T14:23:48.477Z,99696
2018-05-01T14:26:15.305Z,99687
2018-05-01T14:28:41.378Z,99676
2018-05-01T14:31:07.464Z,99684
2018-05-01T14:33:34.275Z,99678
2018-05-01T14:36:00.368Z,99688
2018-05-01T14:38:26.456Z,99696
2018-05-01T14:40:53.383Z,99694
2018-05-01T14:43:20.128Z,99701
2018-05-01T14:45:46.215Z,99700
2018-05-01T14:48:12.300Z,99709
2018-05-01T14:50:39.116Z,99706
2018-05-01T14:53:05.204Z,99716
2018-05-01T14:55:31.283Z,99710
2018-05-01T14:57:57.364Z,99715
2018-05-01T15:00:23.423Z,99709
2018-05-01T15:03:00.725Z,99715
2018-05-01T15:05:26.786Z,99721
2018-05-01T15:07:52.888Z,99723
2018-05-01T15:10:19.701Z,99717
2018-05-01T15:12:45.781Z,99714
2018-05-01T15:15:11.853Z,99715
2018-05-01T15:17:37.928Z,99720
2018-05-01T15:20:03.989Z,99722
2018-05-01T15:22:30.065Z,99716
2018-05-01T15:24:56.149Z,99718
2018-05-01T15:27:22.228Z,99703
2018-05-01T15:29:48.298Z,99708
2018-05-01T15:32:14.363Z,99713
2018-05-01T15:34:40.444Z,99721
2018-05-01T15:37:06.508Z,99714
2018-05-01T15:39:33.323Z,99724
2018-05-01T15:41:59.398Z,99734
2018-05-01T15:44:25.471Z,99723
2018-05-01T15:46:51.535Z,99719
2018-05-01T15:49:17.603Z,99726
2018-05-01T15:51:43.706Z,99716
2018-05-01T15:54:09.759Z,99716
2018-05-01T15:56:35.836Z,99716
2018-05-01T15:59:01.910Z,99711
2018-05-01T16:01:27.983Z,99725
2018-05-01T16:03:54.051Z,99727
2018-05-01T16:06:20.115Z,99728
2018-05-01T16:08:46.920Z,99717
2018-05-01T16:11:12.987Z,99718
2018-05-01T16:13:39.796Z,99719
2018-05-01T16:16:05.876Z,99725
2018-05-01T16:18:31.952Z,99722
2018-05-01T16:20:58.042Z,99738
2018-05-01T16:23:24.096Z,99727
2018-05-01T16:25:50.167Z,99724
2018-05-01T16:28:16.262Z,99735
2018-05-01T16:30:42.329Z,99735
2018-05-01T16:33:08.399Z,99731
2018-05-01T16:35:34.485Z,99736
2018-05-01T16:38:00.547Z,99735
2018-05-01T16:40:26.628Z,99739
2018-05-01T16:42:52.691Z,99747
2018-05-01T16:45:18.816Z,99751
2018-05-01T16:47:44.889Z,99759
2018-05-01T16:50:11.687Z,99759
2018-05-01T16:52:37.755Z,99750
2018-05-01T16:55:04.557Z,99751
2018-05-01T16:57:30.640Z,99741
2018-05-01T16:59:56.705Z,99747
2018-05-01T17:02:22.776Z,99749
2018-05-01T17:04:49.579Z,99748
2018-05-01T17:07:15.647Z,99754
2018-05-01T17:09:42.452Z,99751
2018-05-01T17:12:08.517Z,99746
2018-05-01T17:14:34.601Z,99757
2018-05-01T17:17:00.684Z,99769
2018-05-01T17:19:26.752Z,99759
2018-05-01T17:21:52.815Z,99777
2018-05-01T17:24:18.897Z,99768
2018-05-01T17:26:44.955Z,99761
2018-05-01T17:29:11.783Z,99761
2018-05-01T17:31:37.844Z,99764
2018-05-01T17:34:03.917Z,99777
2018-05-01T17:36:29.976Z,99781
2018-05-01T17:38:56.792Z,99785
2018-05-01T17:41:23.595Z,99786
2018-05-01T17:43:49.672Z,99798
2018-05-01T17:46:16.485Z,99793
2018-05-01T17:48:42.596Z,99801
2018-05-01T17:51:08.642Z,99800
2018-05-01T17:53:34.728Z,99808
2018-05-01T17:56:00.816Z,99810
2018-05-01T17:58:27.636Z,99819
2018-05-01T18:00:53.704Z,99826
2018-05-01T18:03:20.500Z,99819
2018-05-01T18:05:46.559Z,99829
2018-05-01T18:08:13.411Z,99840
2018-05-01T18:10:40.211Z,99839
2018-05-01T18:13:06.277Z,99832
2018-05-01T18:15:32.345Z,99843
2018-05-01T18:17:58.407Z,99849
2018-05-01T18:20:25.232Z,99859
2018-05-01T18:22:52.036Z,99865
2018-05-01T18:25:18.111Z,99875
2018-05-01T18:27:44.164Z,99874
2018-05-01T18:30:10.977Z,99879
2018-05-01T18:32:37.040Z,99865
2018-05-01T18:35:03.107Z,99866
2018-05-01T18:37:29.188Z,99868
2018-05-01T18:39:55.269Z,99872
2018-05-01T18:42:21.343Z,99878
2018-05-01T18:44:47.409Z,99888
2018-05-01T18:47:13.480Z,99895
2018-05-01T18:49:40.276Z,99889
2018-05-01T18:52:06.339Z,99898
2018-05-01T18:54:33.153Z,99897
2018-05-01T18:56:59.240Z,99922
2018-05-01T18:59:25.319Z,99910
2018-05-01T19:01:51.374Z,99919
2018-05-01T19:04:17.447Z,99913
2018-05-01T19:06:43.546Z,99917
2018-05-01T19:09:09.608Z,99916
2018-05-01T19:11:37.168Z,99920
2018-05-01T19:14:03.244Z,99924
2018-05-01T19:16:29.317Z,99917
2018-05-01T19:18:55.383Z,99923
2018-05-01T19:21:21.444Z,99919
2018-05-01T19:23:47.523Z,99913
2018-05-01T19:26:14.324Z,99920
2018-05-01T19:28:40.392Z,99932
2018-05-01T19:31:06.468Z,99933
2018-05-01T19:33:32.543Z,99925
2018-05-01T19:35:59.348Z,99929
2018-05-01T19:38:25.410Z,99943
2018-05-01T19:40:52.220Z,99930
2018-05-01T19:43:18.324Z,99921
2018-05-01T19:45:44.396Z,99933
2018-05-01T19:48:11.196Z,99932
2018-05-01T19:50:37.267Z,99930
2018-05-01T19:53:04.108Z,99930
2018-05-01T19:55:30.907Z,99938
2018-05-01T19:57:56.996Z,99938
2018-05-01T20:00:23.077Z,99949
2018-05-01T20:02:49.148Z,99954
2018-05-01T20:05:15.228Z,99949
2018-05-01T20:07:41.304Z,99962
2018-05-01T20:10:07.376Z,99958
2018-05-01T20:12:33.459Z,99960
2018-05-01T20:14:59.541Z,99948
2018-05-01T20:17:26.369Z,99962
2018-05-01T20:19:52.453Z,99958
2018-05-01T20:22:18.540Z,99970
2018-05-01T20:24:45.357Z,99975
2018-05-01T20:27:11.436Z,99978
2018-05-01T20:29:37.508Z,99981
2018-05-01T20:32:03.583Z,99979
2018-05-01T20:34:29.655Z,99993
2018-05-01T20:36:55.736Z,99985
2018-05-01T20:39:21.816Z,99985
2018-05-01T20:41:47.893Z,99986
2018-05-01T20:44:18.823Z,99984
2018-05-01T20:46:45.636Z,99991
2018-05-01T20:49:12.448Z,99996
2018-05-01T20:51:38.545Z,99995
2018-05-01T20:54:04.616Z,99993
2018-05-01T20:56:30.679Z,99985
2018-05-01T20:58:56.751Z,99980
2018-05-01T21:01:22.807Z,99980
2018-05-01T21:03:49.613Z,99993
2018-05-01T21:06:15.680Z,99994
2018-05-01T21:08:42.497Z,100006
2018-05-01T21:11:08.556Z,100006
2018-05-01T21:13:34.632Z,100002
2018-05-01T21:16:00.716Z,100010
2018-05-01T21:18:26.797Z,100012
2018-05-01T21:20:52.852Z,100000
2018-05-01T21:23:19.672Z,100001
2018-05-01T21:25:45.744Z,99993
2018-05-01T21:28:11.815Z,99992
2018-05-01T21:30:37.907Z,100005
2018-05-01T21:33:03.955Z,99997
2018-05-01T21:35:30.023Z,100004
2018-05-01T21:37:56.089Z,100004
2018-05-01T21:40:22.155Z,100003
2018-05-01T21:42:49.284Z,100005
2018-05-01T21:45:15.357Z,100008
2018-05-01T21:47:41.423Z,100015
2018-05-01T21:50:07.479Z,100017
2018-05-01T21:55:41.653Z,100010
2018-05-01T21:58:11.320Z,100017
2018-05-01T22:00:44.560Z,100026
2018-05-01T22:03:30.068Z,100021
2018-05-01T22:05:56.144Z,100020
2018-05-01T22:08:22.232Z,100026
2018-05-01T22:10:51.868Z,100019
2018-05-01T22:13:22.513Z,100029
2018-05-01T22:18:49.048Z,100028
2018-05-01T22:21:15.872Z,100033
2018-05-01T22:29:45.336Z,100031
2018-05-01T22:32:29.977Z,100036
2018-05-01T22:34:56.081Z,100024
2018-05-01T22:37:33.244Z,100036
2018-05-01T22:39:59.328Z,100041
2018-05-01T22:42:25.408Z,100039
2018-05-01T22:44:51.489Z,100039
2018-05-01T22:47:18.343Z,100034
2018-05-01T22:50:17.080Z,100039
2018-05-01T22:52:43.264Z,100046
2018-05-01T22:55:22.960Z,100054
2018-05-01T22:57:57.465Z,100045
2018-05-01T23:00:37.337Z,100059
2018-05-01T23:03:03.421Z,100051
2018-05-01T23:05:29.492Z,100050
2018-05-01T23:07:55.589Z,100050
2018-05-01T23:10:21.652Z,100057
2018-05-01T23:13:08.592Z,100054
2018-05-01T23:15:52.288Z,100063
2018-05-01T23:18:38.934Z,100059
2018-05-01T23:21:27.689Z,100060
2018-05-01T23:24:02.358Z,100051
2018-05-01T23:26:52.520Z,100062
2018-05-01T23:29:18.609Z,100069
2018-05-01T23:31:44.677Z,100061
2018-05-01T23:34:14.568Z,100053
2018-05-01T23:36:48.002Z,100052
2018-05-01T23:39:28.397Z,100054
2018-05-01T23:41:54.477Z,100055
2018-05-01T23:44:20.555Z,100049
2018-05-01T23:46:46.634Z,100045
2018-05-01T23:49:12.748Z,100054
2018-05-01T23:51:38.828Z,100052
2018-05-01T23:54:04.917Z,100050
2018-05-01T23:56:30.996Z,100055
2018-05-01T23:58:57.820Z,100048
